Time;durP1;ratioP1;P1;durP2;ratioP2;P2;SDS_P1;SDS_P2;PMS_P1;PMS_P2;Temp;Humidity;BMP_temperature;BMP_pressure;BME280_temperature;BME280_humidity;BME280_pressure;Samples;Min_cycle;Max_cycle;Signal;HPM_P1;HPM_P2
2021/09/05 00:03:17;;;;;;;5.10;2.40;;;;;;;11.59;69.48;99158.80;232611;1197;25177;-73
2021/09/05 00:08:20;;;;;;;2.40;2.00;;;;;;;11.61;69.48;99159.00;232845;1197;24887;-77
2021/09/05 00:13:23;;;;;;;5.10;2.10;;;;;;;11.58;69.41;99166.34;232900;1205;24320;-75
2021/09/05 00:18:27;;;;;;;6.00;2.30;;;;;;;11.51;69.30;99168.56;232791;1205;24093;-74
2021/09/05 00:23:30;;;;;;;3.90;2.60;;;;;;;11.39;69.52;99164.34;232717;1205;24018;-76
2021/09/05 00:28:34;;;;;;;4.40;2.00;;;;;;;11.26;69.58;99167.46;232954;1204;24093;-78
2021/09/05 00:33:37;;;;;;;4.60;2.30;;;;;;;11.18;69.86;99163.85;232891;1205;22479;-80
2021/09/05 00:38:42;;;;;;;4.80;2.40;;;;;;;11.13;69.91;99163.23;232578;1206;25199;-76
2021/09/05 00:44:00;;;;;;;4.20;2.30;;;;;;;11.09;70.04;99164.25;232564;1205;25208;-78
2021/09/05 00:49:05;;;;;;;4.70;2.10;;;;;;;11.07;70.07;99167.86;233059;1204;22463;-76
2021/09/05 00:54:10;;;;;;;3.40;2.20;;;;;;;11.05;70.33;99173.45;233084;1204;22469;-76
2021/09/05 00:59:17;;;;;;;4.80;2.30;;;;;;;10.99;70.18;99173.98;232980;1197;22464;-73
2021/09/05 01:04:20;;;;;;;4.30;1.80;;;;;;;10.92;70.46;99166.91;233013;1204;23958;-75
2021/09/05 01:09:29;;;;;;;4.80;2.10;;;;;;;10.84;70.46;99167.88;232741;1205;24058;-76
2021/09/05 01:14:35;;;;;;;4.00;2.20;;;;;;;10.76;70.61;99167.98;232604;1205;24045;-76
2021/09/05 01:19:43;;;;;;;3.80;2.20;;;;;;;10.67;70.76;99175.19;232775;1204;22472;-76
2021/09/05 01:25:06;;;;;;;3.00;1.90;;;;;;;10.59;70.95;99176.52;232717;1204;24059;-75
2021/09/05 01:30:30;;;;;;;6.10;2.50;;;;;;;10.49;71.17;99177.08;232570;1204;22607;-77
2021/09/05 01:35:51;;;;;;;3.50;2.60;;;;;;;10.39;71.28;99186.50;232785;1204;24058;-76
2021/09/05 01:41:19;;;;;;;3.80;2.20;;;;;;;10.25;71.43;99191.16;232670;1197;25286;-74
2021/09/05 01:46:41;;;;;;;4.30;2.40;;;;;;;10.16;71.66;99196.52;232933;1204;22518;-75
2021/09/05 01:52:17;;;;;;;3.90;2.30;;;;;;;10.08;71.97;99195.30;232780;1201;23476;-77
2021/09/05 01:57:58;;;;;;;5.20;2.30;;;;;;;9.99;72.14;99195.66;232830;1210;26408;-73
2021/09/05 02:03:19;;;;;;;3.80;2.10;;;;;;;9.93;72.33;99192.96;232771;1197;23692;-76
2021/09/05 02:08:42;;;;;;;7.00;1.70;;;;;;;9.92;72.43;99187.66;232729;1204;24224;-76
2021/09/05 02:14:13;;;;;;;4.00;2.40;;;;;;;9.95;72.38;99193.48;232333;1204;24434;-76
2021/09/05 02:19:35;;;;;;;5.90;2.50;;;;;;;9.95;72.58;99198.40;232520;1204;24190;-73
2021/09/05 02:25:09;;;;;;;2.80;2.10;;;;;;;9.92;72.57;99203.52;232560;1205;22616;-75
2021/09/05 02:30:38;;;;;;;5.20;2.60;;;;;;;9.85;72.63;99200.59;232406;1205;24145;-76
2021/09/05 02:36:07;;;;;;;3.40;2.30;;;;;;;9.79;72.86;99203.06;232557;1205;24093;-76
2021/09/05 02:41:38;;;;;;;5.30;3.10;;;;;;;9.69;73.11;99208.98;232548;1205;25224;-77
2021/09/05 02:46:54;;;;;;;6.10;2.40;;;;;;;9.61;73.17;99216.06;232626;1212;25158;-75
2021/09/05 02:52:10;;;;;;;3.60;2.00;;;;;;;9.54;73.38;99217.19;232720;1204;24033;-75
2021/09/05 02:57:41;;;;;;;3.30;2.20;;;;;;;9.49;73.46;99217.42;232737;1204;24601;-76
2021/09/05 03:03:07;;;;;;;5.30;2.60;;;;;;;9.42;73.55;99222.35;232741;1204;24024;-75
2021/09/05 03:08:21;;;;;;;5.30;2.80;;;;;;;9.38;73.74;99226.27;232713;1198;22580;-75
2021/09/05 03:14:02;;;;;;;4.20;2.30;;;;;;;9.34;73.78;99227.17;232689;1204;25082;-75
2021/09/05 03:19:23;;;;;;;6.20;2.70;;;;;;;9.32;74.06;99235.15;232644;1204;22574;-75
2021/09/05 03:24:46;;;;;;;4.20;2.80;;;;;;;9.26;74.03;99235.52;232680;1205;24071;-75
2021/09/05 03:30:05;;;;;;;5.10;2.80;;;;;;;9.22;74.29;99233.75;232753;1208;24107;-75
2021/09/05 03:35:31;;;;;;;5.70;3.00;;;;;;;9.20;74.37;99235.30;232462;1205;24082;-77
2021/09/05 03:40:59;;;;;;;6.70;2.50;;;;;;;9.24;74.60;99241.34;232533;1205;25108;-77
2021/09/05 03:46:02;;;;;;;3.70;2.60;;;;;;;9.20;74.46;99238.35;232827;1204;22611;-75
2021/09/05 03:51:23;;;;;;;4.00;2.50;;;;;;;9.16;74.54;99243.11;232608;1207;24084;-75
2021/09/05 03:56:36;;;;;;;7.00;2.80;;;;;;;9.14;74.54;99239.11;232732;1204;24110;-74
2021/09/05 04:01:49;;;;;;;4.20;2.30;;;;;;;9.16;74.69;99243.00;232694;1198;24415;-76
2021/09/05 04:07:02;;;;;;;4.40;2.30;;;;;;;9.18;74.81;99251.40;232581;1204;24624;-78
2021/09/05 04:12:12;;;;;;;4.40;2.60;;;;;;;9.20;74.75;99252.36;232665;1200;25090;-76
2021/09/05 04:17:16;;;;;;;5.30;2.30;;;;;;;9.23;74.92;99258.08;232724;1205;24096;-75
2021/09/05 04:22:19;;;;;;;3.00;2.20;;;;;;;9.27;75.04;99267.77;232693;1212;22445;-75
2021/09/05 04:27:22;;;;;;;5.40;3.40;;;;;;;9.31;75.03;99273.80;232759;1205;25317;-75
2021/09/05 04:32:34;;;;;;;4.40;2.60;;;;;;;9.41;75.23;99285.14;232737;1198;24813;-78
2021/09/05 04:37:37;;;;;;;5.40;2.50;;;;;;;9.53;75.17;99291.29;232684;1204;24064;-77
2021/09/05 04:42:39;;;;;;;6.10;2.50;;;;;;;9.62;75.13;99291.16;232581;1201;22452;-77
2021/09/05 04:47:42;;;;;;;4.60;2.40;;;;;;;9.69;75.07;99295.27;232765;1204;24094;-76
2021/09/05 04:52:44;;;;;;;3.10;2.30;;;;;;;9.79;75.20;99296.33;232711;1207;24545;-78
2021/09/05 04:57:47;;;;;;;6.10;3.10;;;;;;;9.90;75.06;99299.96;232797;1204;24148;-75
2021/09/05 05:02:50;;;;;;;8.10;3.00;;;;;;;10.02;75.32;99307.53;233052;1204;22519;-75
2021/09/05 05:07:54;;;;;;;5.40;2.70;;;;;;;10.13;75.51;99312.42;232559;1204;25293;-76
2021/09/05 05:12:58;;;;;;;7.60;4.60;;;;;;;10.28;75.31;99319.83;232815;1205;24118;-75
2021/09/05 05:18:14;;;;;;;6.30;3.70;;;;;;;10.42;75.18;99329.34;232881;1204;22454;-75
2021/09/05 05:23:26;;;;;;;5.20;2.80;;;;;;;10.52;74.95;99335.73;232777;1203;24070;-75
2021/09/05 05:28:29;;;;;;;4.90;2.90;;;;;;;10.61;74.87;99337.95;233002;1208;24091;-76
2021/09/05 05:33:31;;;;;;;3.90;2.80;;;;;;;10.72;74.79;99341.49;232787;1205;22458;-76
2021/09/05 05:38:42;;;;;;;5.10;3.00;;;;;;;10.86;74.76;99347.38;232792;1208;22423;-76
2021/09/05 05:43:59;;;;;;;6.30;3.00;;;;;;;11.02;74.72;99351.10;232750;1205;25334;-74
2021/09/05 05:49:01;;;;;;;5.60;3.10;;;;;;;11.22;74.61;99358.06;232725;1205;22478;-76
2021/09/05 05:54:04;;;;;;;4.90;2.40;;;;;;;11.43;74.48;99359.27;232747;1204;22489;-75
2021/09/05 05:59:08;;;;;;;6.30;3.00;;;;;;;11.60;73.98;99359.09;233017;1205;22933;-76
2021/09/05 06:04:11;;;;;;;5.20;3.20;;;;;;;11.79;73.89;99363.48;232856;1203;24075;-76
2021/09/05 06:09:15;;;;;;;5.00;2.70;;;;;;;11.97;73.38;99372.60;232873;1203;22452;-77
2021/09/05 06:14:17;;;;;;;4.70;2.80;;;;;;;12.14;73.17;99377.43;232691;1204;24282;-76
2021/09/05 06:19:21;;;;;;;3.30;1.80;;;;;;;12.32;73.05;99384.12;232729;1205;22559;-75
2021/09/05 06:24:23;;;;;;;4.60;2.10;;;;;;;12.53;72.84;99392.83;232559;1203;24034;-76
2021/09/05 06:29:26;;;;;;;3.80;2.30;;;;;;;12.74;72.13;99392.74;232636;1205;22469;-77
2021/09/05 06:34:34;;;;;;;3.40;2.10;;;;;;;12.95;71.52;99393.94;232539;1205;24530;-77
2021/09/05 06:39:37;;;;;;;3.30;2.30;;;;;;;13.20;71.29;99392.80;232655;1207;24069;-75
2021/09/05 06:44:39;;;;;;;2.60;2.10;;;;;;;13.45;70.69;99398.09;232667;1203;22932;-75
2021/09/05 06:49:42;;;;;;;4.80;1.70;;;;;;;13.65;70.05;99403.80;233104;1208;25129;-76
2021/09/05 06:54:44;;;;;;;2.40;1.90;;;;;;;13.84;69.17;99410.83;232557;1203;24055;-73
2021/09/05 06:59:46;;;;;;;2.30;1.70;;;;;;;14.00;68.18;99418.38;232556;1206;24083;-75
2021/09/05 07:04:49;;;;;;;3.40;1.90;;;;;;;14.13;67.73;99427.91;232794;1198;24113;-76
2021/09/05 07:10:12;;;;;;;2.50;2.00;;;;;;;14.23;66.99;99432.34;232466;1205;22466;-77
2021/09/05 07:15:17;;;;;;;4.60;2.10;;;;;;;14.39;66.61;99440.73;232617;1209;24106;-79
2021/09/05 07:20:19;;;;;;;2.30;1.80;;;;;;;14.56;66.01;99444.94;232534;1208;22511;-81
2021/09/05 07:25:26;;;;;;;2.10;1.50;;;;;;;14.73;65.59;99451.77;232852;1209;24178;-73
2021/09/05 07:30:35;;;;;;;2.80;1.40;;;;;;;14.93;64.87;99460.73;232458;1205;22521;-76
2021/09/05 07:35:46;;;;;;;2.00;1.60;;;;;;;15.11;64.12;99465.27;232786;1205;22925;-76
2021/09/05 07:40:49;;;;;;;1.80;1.30;;;;;;;15.27;63.15;99471.05;232798;1209;22624;-79
2021/09/05 07:45:51;;;;;;;2.30;1.50;;;;;;;15.45;62.89;99473.35;232821;1205;25246;-75
2021/09/05 07:50:54;;;;;;;2.10;1.30;;;;;;;15.69;62.19;99479.03;233013;1205;22891;-77
2021/09/05 07:55:56;;;;;;;2.10;1.10;;;;;;;15.87;61.24;99485.99;232999;1208;24091;-77
2021/09/05 08:01:09;;;;;;;1.60;1.30;;;;;;;16.06;60.46;99493.98;232690;1205;24222;-77
2021/09/05 08:06:13;;;;;;;1.90;1.20;;;;;;;16.26;59.38;99497.94;232895;1209;25220;-76
2021/09/05 08:11:28;;;;;;;1.60;1.10;;;;;;;16.45;58.77;99500.47;233420;1198;22449;-76
2021/09/05 08:16:51;;;;;;;2.00;1.30;;;;;;;16.67;58.03;99506.70;232895;1205;25221;-75
2021/09/05 08:22:00;;;;;;;3.10;2.00;;;;;;;16.79;57.45;99507.23;233250;1199;25307;-74
2021/09/05 08:27:14;;;;;;;;;;;;;;;16.87;56.99;99508.66;233166;1203;22461;-76
2021/09/05 08:32:16;;;;;;;2.20;1.20;;;;;;;16.96;57.05;99516.27;233063;1206;24059;-75
2021/09/05 08:37:19;;;;;;;1.50;1.40;;;;;;;17.11;56.43;99522.95;232946;1205;24118;-77
2021/09/05 08:42:21;;;;;;;2.40;1.30;;;;;;;17.22;56.01;99531.10;233081;1205;22540;-74
2021/09/05 08:47:39;;;;;;;2.40;1.30;;;;;;;17.35;55.86;99532.20;232956;1205;24074;-75
2021/09/05 08:52:42;;;;;;;1.90;1.60;;;;;;;17.46;55.30;99535.02;232944;1212;23647;-77
2021/09/05 08:57:45;;;;;;;1.60;1.30;;;;;;;17.56;55.26;99537.91;233525;1208;24045;-77
2021/09/05 09:02:50;;;;;;;1.80;1.30;;;;;;;17.55;53.91;99541.54;232783;1206;25511;-75
2021/09/05 09:08:05;;;;;;;3.90;2.20;;;;;;;17.44;52.97;99541.67;232996;1208;22755;-75
2021/09/05 09:13:22;;;;;;;0.90;0.90;;;;;;;17.37;52.86;99537.29;233355;1205;22461;-75
2021/09/05 09:18:34;;;;;;;2.70;1.40;;;;;;;17.21;52.24;99546.46;233151;1208;25342;-75
2021/09/05 09:24:08;;;;;;;1.80;1.30;;;;;;;17.08;52.65;99548.03;233070;1199;24089;-76
2021/09/05 09:29:16;;;;;;;4.40;1.10;;;;;;;17.12;53.24;99544.58;233302;1206;24069;-76
2021/09/05 09:34:20;;;;;;;3.00;1.80;;;;;;;17.28;53.21;99545.94;233058;1208;22452;-74
2021/09/05 09:39:27;;;;;;;2.20;1.10;;;;;;;17.50;52.59;99546.89;233544;1205;22572;-75
2021/09/05 09:44:29;;;;;;;1.70;1.50;;;;;;;17.67;51.98;99543.25;233286;1205;24073;-76
2021/09/05 09:49:46;;;;;;;5.10;3.80;;;;;;;17.77;51.14;99543.16;233079;1205;22499;-76
2021/09/05 09:54:51;;;;;;;1.30;1.20;;;;;;;17.88;51.50;99545.29;232901;1209;26402;-77
2021/09/05 09:59:53;;;;;;;1.30;1.00;;;;;;;18.04;50.69;99547.48;232754;1203;24220;-76
2021/09/05 10:04:59;;;;;;;1.60;1.40;;;;;;;18.13;50.57;99542.56;232657;1205;25239;-78
2021/09/05 10:10:04;;;;;;;1.30;1.10;;;;;;;18.24;50.28;99540.03;233154;1206;22475;-76
2021/09/05 10:15:09;;;;;;;1.20;0.70;;;;;;;18.42;49.90;99540.31;233174;1209;25212;-76
2021/09/05 10:20:15;;;;;;;2.20;1.10;;;;;;;18.57;49.07;99543.10;232788;1203;25180;-74
2021/09/05 10:25:18;;;;;;;9.10;7.30;;;;;;;18.67;48.91;99540.73;233221;1206;22452;-74
2021/09/05 10:30:23;;;;;;;2.20;0.90;;;;;;;18.79;48.96;99543.58;232912;1204;24187;-74
2021/09/05 10:35:26;;;;;;;1.40;1.00;;;;;;;18.83;48.29;99541.72;233315;1202;22644;-77
2021/09/05 10:41:04;;;;;;;1.20;0.90;;;;;;;18.92;48.37;99541.24;233101;1207;22445;-78
2021/09/05 10:46:07;;;;;;;3.60;1.10;;;;;;;19.06;48.50;99541.28;232590;1208;24074;-76
2021/09/05 10:51:13;;;;;;;2.40;1.10;;;;;;;19.20;48.56;99537.28;233147;1205;22466;-76
2021/09/05 10:56:19;;;;;;;4.20;3.20;;;;;;;19.35;48.09;99537.06;233104;1208;24933;-75
2021/09/05 11:01:28;;;;;;;3.90;3.00;;;;;;;19.39;47.56;99532.70;233316;1205;22454;-76
2021/09/05 11:06:47;;;;;;;2.00;1.70;;;;;;;19.44;47.06;99535.16;232932;1205;25452;-76
2021/09/05 11:11:56;;;;;;;;;;;;;;;19.54;46.38;99537.48;233106;1205;24181;-76
2021/09/05 11:17:00;;;;;;;;;;;;;;;19.54;46.73;99535.73;232746;1205;24120;-75
2021/09/05 11:22:08;;;;;;;0.90;0.80;;;;;;;19.68;46.97;99535.20;232984;1206;22476;-75
2021/09/05 11:27:15;;;;;;;1.80;0.90;;;;;;;19.68;45.80;99538.71;233200;1205;25218;-76
2021/09/05 11:32:19;;;;;;;1.30;1.10;;;;;;;19.57;45.39;99537.30;233301;1201;22570;-76
2021/09/05 11:37:45;;;;;;;4.60;1.30;;;;;;;19.51;45.22;99532.56;232719;1207;24076;-76
2021/09/05 11:42:52;;;;;;;1.90;1.70;;;;;;;19.58;45.77;99528.61;233357;1205;22466;-76
2021/09/05 11:48:04;;;;;;;1.30;1.10;;;;;;;19.75;46.00;99531.89;233231;1204;24164;-76
2021/09/05 11:53:28;;;;;;;1.30;0.90;;;;;;;19.93;46.00;99524.05;233191;1204;22478;-76
2021/09/05 11:58:52;;;;;;;1.10;0.70;;;;;;;20.08;45.10;99530.95;233028;1207;25113;-76
2021/09/05 12:03:55;;;;;;;1.60;1.10;;;;;;;20.10;44.76;99525.52;233297;1205;24214;-75
2021/09/05 12:09:01;;;;;;;2.20;1.80;;;;;;;20.20;44.95;99518.70;233020;1203;22466;-76
2021/09/05 12:14:04;;;;;;;1.50;1.00;;;;;;;20.36;44.91;99516.61;232921;1204;22483;-81
2021/09/05 12:19:11;;;;;;;4.20;3.30;;;;;;;20.45;44.32;99522.05;232714;1206;22605;-78
2021/09/05 12:24:18;;;;;;;1.50;1.30;;;;;;;20.53;44.47;99513.39;233261;1205;24080;-75
2021/09/05 12:29:29;;;;;;;1.70;1.30;;;;;;;20.61;43.97;99507.83;232899;1200;26174;-75
2021/09/05 12:34:45;;;;;;;1.20;1.10;;;;;;;20.58;43.31;99512.73;233185;1204;24158;-74
2021/09/05 12:39:51;;;;;;;1.50;1.20;;;;;;;20.45;42.90;99515.77;233089;1206;25206;-76
2021/09/05 12:45:01;;;;;;;2.50;1.40;;;;;;;20.42;43.31;99515.27;233265;1204;25225;-76
2021/09/05 12:50:04;;;;;;;1.40;1.30;;;;;;;20.49;42.92;99512.80;233307;1203;22460;-75
2021/09/05 12:55:21;;;;;;;4.80;3.60;;;;;;;20.46;42.50;99514.79;233085;1204;22479;-75
2021/09/05 13:00:40;;;;;;;2.10;1.20;;;;;;;20.48;42.56;99513.77;232979;1204;24073;-75
2021/09/05 13:05:43;;;;;;;1.40;1.30;;;;;;;20.55;42.70;99509.27;233024;1205;24288;-76
2021/09/05 13:10:47;;;;;;;2.30;1.80;;;;;;;20.73;42.64;99509.23;233194;1204;24170;-75
2021/09/05 13:16:04;;;;;;;1.30;1.10;;;;;;;20.86;42.17;99507.91;232875;1204;24259;-73
2021/09/05 13:21:10;;;;;;;2.60;1.10;;;;;;;20.97;41.64;99511.04;232829;1205;24229;-75
2021/09/05 13:26:17;;;;;;;1.40;1.30;;;;;;;21.06;41.53;99514.05;232824;1204;22462;-76
2021/09/05 13:31:34;;;;;;;1.20;1.10;;;;;;;21.23;41.67;99508.20;232915;1207;24103;-75
2021/09/05 13:36:45;;;;;;;1.70;1.60;;;;;;;21.30;40.77;99514.64;232976;1204;22671;-75
2021/09/05 13:41:48;;;;;;;1.50;1.40;;;;;;;21.25;41.08;99511.70;232817;1205;22472;-75
2021/09/05 13:46:51;;;;;;;1.80;1.20;;;;;;;21.26;41.01;99515.85;232862;1205;24520;-74
2021/09/05 13:52:13;;;;;;;1.10;0.80;;;;;;;21.24;40.74;99514.13;232539;1206;25222;-76
2021/09/05 13:57:17;;;;;;;2.50;1.60;;;;;;;21.19;40.93;99517.39;232904;1206;22769;-74
2021/09/05 14:02:20;;;;;;;1.80;1.60;;;;;;;20.87;41.08;99511.65;232681;1205;24056;-75
2021/09/05 14:07:23;;;;;;;2.00;1.30;;;;;;;20.59;41.51;99516.23;232729;1207;25207;-76
2021/09/05 14:12:25;;;;;;;1.40;1.10;;;;;;;20.58;41.60;99510.29;233080;1200;25179;-74
2021/09/05 14:17:28;;;;;;;2.10;1.60;;;;;;;20.74;41.60;99515.58;233113;1204;24169;-76
2021/09/05 14:22:42;;;;;;;1.60;1.20;;;;;;;20.78;41.17;99519.89;233439;1204;24057;-75
2021/09/05 14:28:00;;;;;;;1.30;1.00;;;;;;;20.54;41.12;99520.96;232867;1204;24214;-74
2021/09/05 14:49:23;;;;;;;2.00;1.30;;;;;;;19.51;42.42;99511.44;232288;1210;24692;-75
2021/09/05 15:00:04;;;;;;;1.30;1.20;;;;;;;19.75;42.58;99509.66;232800;1206;24181;-74
2021/09/05 15:05:29;;;;;;;2.70;1.40;;;;;;;19.74;41.94;99510.64;232918;1205;24110;-75
2021/09/05 15:11:06;;;;;;;1.60;1.30;;;;;;;19.66;41.86;99509.77;232847;1204;25343;-74
2021/09/05 15:16:11;;;;;;;2.40;1.20;;;;;;;19.66;42.22;99507.27;233163;1204;23096;-74
2021/09/05 15:21:16;;;;;;;1.70;1.10;;;;;;;19.68;42.34;99510.44;232774;1205;22452;-77
2021/09/05 15:26:23;;;;;;;4.20;2.80;;;;;;;19.64;42.12;99506.27;232862;1205;22471;-75
2021/09/05 15:58:15;;;;;;;1.70;1.20;;;;;;;19.03;43.46;99510.27;232652;1205;25098;-75
2021/09/05 16:03:32;;;;;;;2.40;1.50;;;;;;;18.95;43.83;99510.11;232981;1204;24081;-76
2021/09/05 16:19:21;;;;;;;2.20;1.30;;;;;;;18.52;44.85;99509.67;232872;1204;22479;-75
2021/09/05 16:24:25;;;;;;;2.40;1.10;;;;;;;18.33;45.15;99508.34;233087;1204;25231;-76
2021/09/05 16:29:37;;;;;;;2.40;1.50;;;;;;;18.12;45.74;99507.15;232529;1197;22972;-75
2021/09/05 16:35:32;;;;;;;2.70;2.40;;;;;;;17.89;46.38;99506.92;232739;1204;25280;-75
2021/09/05 16:45:42;;;;;;;2.80;1.90;;;;;;;17.39;47.33;99512.77;233070;1204;22652;-75
2021/09/05 16:51:05;;;;;;;4.40;3.00;;;;;;;17.12;47.85;99508.98;232517;1197;22837;-74
2021/09/05 16:56:08;;;;;;;3.00;2.20;;;;;;;16.86;48.60;99508.04;232603;1205;22511;-76
2021/09/05 17:01:11;;;;;;;3.10;2.70;;;;;;;16.62;49.05;99515.10;232845;1204;24140;-76
2021/09/05 17:06:16;;;;;;;2.50;1.90;;;;;;;16.36;49.64;99517.86;232688;1204;22438;-75
2021/09/05 17:11:20;;;;;;;3.10;1.90;;;;;;;16.08;50.45;99523.89;232865;1204;26237;-76
2021/09/05 17:16:24;;;;;;;2.50;2.30;;;;;;;15.78;51.02;99527.29;232882;1204;24087;-75
2021/09/05 17:21:27;;;;;;;3.20;2.80;;;;;;;15.53;51.51;99532.70;232955;1204;23509;-73
2021/09/05 17:26:30;;;;;;;8.20;6.10;;;;;;;15.27;52.21;99531.60;232978;1204;24581;-75
2021/09/05 17:31:32;;;;;;;8.30;5.80;;;;;;;15.02;52.84;99530.62;232760;1212;24144;-72
2021/09/05 17:36:36;;;;;;;4.30;2.60;;;;;;;14.78;53.44;99535.98;232888;1204;25206;-73
2021/09/05 17:41:44;;;;;;;2.70;2.00;;;;;;;14.56;53.83;99544.91;232834;1204;22487;-75
2021/09/05 17:46:50;;;;;;;5.10;3.70;;;;;;;14.32;54.39;99547.67;232735;1204;22393;-75
2021/09/05 17:51:55;;;;;;;4.80;2.60;;;;;;;14.05;54.96;99555.84;232918;1204;25328;-75
2021/09/05 17:56:57;;;;;;;3.20;2.00;;;;;;;13.80;55.60;99563.58;232955;1204;22566;-75
2021/09/05 18:02:00;;;;;;;4.00;2.00;;;;;;;13.61;56.12;99564.41;232772;1205;24227;-75
2021/09/05 18:07:05;;;;;;;2.30;1.90;;;;;;;13.47;56.87;99565.73;232996;1204;24080;-76
2021/09/05 18:12:12;;;;;;;3.10;1.90;;;;;;;13.37;57.20;99569.88;233089;1204;22967;-75
2021/09/05 18:17:18;;;;;;;3.70;2.00;;;;;;;13.26;57.54;99570.73;233124;1204;24054;-75
2021/09/05 18:22:21;;;;;;;3.50;1.70;;;;;;;13.13;58.01;99575.17;233038;1204;24096;-76
2021/09/05 18:27:23;;;;;;;3.20;1.80;;;;;;;12.96;58.44;99579.31;233009;1196;24217;-75
2021/09/05 18:32:26;;;;;;;2.50;1.80;;;;;;;12.80;58.69;99583.98;233128;1198;24159;-75
2021/09/05 18:37:29;;;;;;;5.70;1.80;;;;;;;12.62;59.06;99588.52;232942;1204;22507;-76
2021/09/05 18:42:34;;;;;;;3.30;2.10;;;;;;;12.46;59.46;99588.52;233054;1197;24059;-75
2021/09/05 18:47:39;;;;;;;3.10;2.30;;;;;;;12.34;60.09;99587.91;233096;1204;22508;-75
2021/09/05 18:52:42;;;;;;;2.90;2.20;;;;;;;12.23;60.53;99587.02;233063;1197;25332;-75
2021/09/05 18:57:59;;;;;;;4.30;2.90;;;;;;;12.13;60.92;99586.29;233065;1204;24047;-75
2021/09/05 19:03:21;;;;;;;4.30;2.30;;;;;;;11.99;61.19;99590.77;232946;1197;25196;-73
2021/09/05 19:08:26;;;;;;;3.80;2.20;;;;;;;11.83;61.58;99588.89;232808;1197;22437;-75
2021/09/05 19:13:29;;;;;;;5.30;3.80;;;;;;;11.72;62.11;99587.82;232836;1204;24062;-74
2021/09/05 19:18:36;;;;;;;5.80;3.60;;;;;;;11.67;62.43;99588.80;233063;1204;24048;-74
2021/09/05 19:23:40;;;;;;;6.40;4.20;;;;;;;11.61;62.93;99595.66;232975;1204;24138;-76
2021/09/05 19:28:44;;;;;;;8.50;5.00;;;;;;;11.53;63.07;99598.59;232913;1204;24149;-75
2021/09/05 19:33:46;;;;;;;6.30;3.90;;;;;;;11.42;63.46;99598.46;232890;1199;22387;-75
2021/09/05 19:38:51;;;;;;;6.90;3.60;;;;;;;11.32;63.88;99603.54;232929;1205;22513;-77
2021/09/05 19:43:59;;;;;;;9.10;4.80;;;;;;;11.23;64.06;99605.88;232733;1205;24562;-75
2021/09/05 19:49:02;;;;;;;11.90;7.40;;;;;;;11.15;64.62;99606.30;232838;1204;24048;-76
2021/09/05 19:54:21;;;;;;;4.30;3.50;;;;;;;11.07;64.80;99610.40;232852;1205;22450;-75
2021/09/05 19:59:24;;;;;;;6.50;3.60;;;;;;;10.94;65.17;99614.55;232876;1204;22468;-72
2021/09/05 20:04:27;;;;;;;4.80;3.50;;;;;;;10.83;65.40;99609.30;232750;1200;24102;-75
2021/09/05 20:09:31;;;;;;;4.60;3.40;;;;;;;10.74;65.91;99612.26;232791;1205;24136;-74
2021/09/05 20:14:35;;;;;;;5.40;3.60;;;;;;;10.65;66.14;99611.77;232792;1206;24190;-75
2021/09/05 20:19:37;;;;;;;7.40;3.80;;;;;;;10.55;66.50;99611.51;232638;1204;22448;-75
2021/09/05 20:24:40;;;;;;;7.90;4.10;;;;;;;10.43;66.62;99607.22;232775;1204;25424;-73
2021/09/05 20:29:47;;;;;;;6.90;3.80;;;;;;;10.35;66.86;99610.68;232812;1198;24062;-74
2021/09/05 20:34:50;;;;;;;9.80;4.50;;;;;;;10.29;67.18;99614.29;232626;1200;25204;-74
2021/09/05 20:39:57;;;;;;;6.40;4.30;;;;;;;10.23;67.45;99614.87;232853;1204;24084;-74
2021/09/05 20:45:15;;;;;;;6.70;3.90;;;;;;;10.19;67.62;99615.80;232847;1204;24624;-74
2021/09/05 20:50:19;;;;;;;6.00;3.60;;;;;;;10.16;67.78;99615.77;232801;1206;24105;-75
2021/09/05 20:55:22;;;;;;;4.70;3.20;;;;;;;10.13;67.85;99611.36;232631;1205;22453;-75
2021/09/05 21:00:25;;;;;;;5.70;3.80;;;;;;;10.11;68.05;99616.98;232869;1204;24061;-75
2021/09/05 21:05:29;;;;;;;6.10;3.90;;;;;;;10.07;68.06;99621.36;232736;1204;24304;-75
2021/09/05 21:10:35;;;;;;;5.90;3.70;;;;;;;10.02;68.06;99622.05;232785;1204;22399;-74
2021/09/05 21:15:41;;;;;;;6.40;3.90;;;;;;;10.00;68.42;99618.67;232863;1204;24103;-75
2021/09/05 21:20:44;;;;;;;8.10;3.80;;;;;;;9.96;68.43;99617.38;232642;1208;24674;-73
2021/09/05 21:25:46;;;;;;;5.50;3.30;;;;;;;9.91;68.30;99622.93;232569;1199;22593;-73
2021/09/05 21:30:49;;;;;;;5.40;3.00;;;;;;;9.86;68.65;99616.98;232609;1204;24052;-75
2021/09/05 21:36:05;;;;;;;4.60;3.50;;;;;;;9.83;68.41;99611.94;232702;1207;24678;-74
2021/09/05 21:41:19;;;;;;;6.40;3.50;;;;;;;9.79;68.65;99614.11;232827;1204;22465;-76
2021/09/05 21:46:34;;;;;;;5.60;3.90;;;;;;;9.71;68.69;99617.83;232814;1204;25287;-75
2021/09/05 21:51:44;;;;;;;7.00;4.10;;;;;;;9.63;68.88;99617.05;232948;1204;22614;-75
2021/09/05 21:56:47;;;;;;;4.10;3.20;;;;;;;9.59;68.92;99616.54;232730;1204;24010;-74
2021/09/05 22:01:49;;;;;;;6.20;3.60;;;;;;;9.56;69.08;99619.20;232784;1204;25343;-73
2021/09/05 22:06:52;;;;;;;6.00;3.80;;;;;;;9.53;69.19;99622.98;232683;1200;22497;-75
2021/09/05 22:11:55;;;;;;;4.80;3.40;;;;;;;9.49;69.34;99622.38;232631;1204;22464;-72
2021/09/05 22:16:59;;;;;;;6.00;3.00;;;;;;;9.44;69.28;99621.35;232673;1204;24129;-75
2021/09/05 22:22:03;;;;;;;5.80;3.50;;;;;;;9.40;69.38;99625.17;232647;1204;22474;-74
2021/09/05 22:27:10;;;;;;;6.60;3.80;;;;;;;9.35;69.59;99623.75;232785;1204;24107;-75
2021/09/05 22:32:13;;;;;;;6.00;3.50;;;;;;;9.30;69.73;99626.66;232726;1204;25172;-76
2021/09/05 22:37:32;;;;;;;5.70;3.70;;;;;;;9.25;69.78;99625.67;232596;1197;24067;-72
2021/09/05 22:42:47;;;;;;;4.90;3.50;;;;;;;9.22;69.80;99627.31;232703;1205;24072;-76
2021/09/05 22:47:50;;;;;;;6.60;3.50;;;;;;;9.19;69.88;99624.73;232727;1204;25392;-74
2021/09/05 22:52:53;;;;;;;6.70;3.20;;;;;;;9.13;69.82;99621.64;232546;1205;22582;-74
2021/09/05 22:57:55;;;;;;;4.80;3.00;;;;;;;9.06;69.88;99620.75;232509;1199;24055;-73
2021/09/05 23:02:58;;;;;;;6.10;3.20;;;;;;;8.99;70.03;99616.90;232537;1204;22466;-75
2021/09/05 23:08:01;;;;;;;7.40;3.10;;;;;;;8.95;70.30;99611.27;232591;1205;24059;-75
2021/09/05 23:13:11;;;;;;;4.70;3.20;;;;;;;8.88;70.29;99613.14;232864;1204;24723;-75
2021/09/05 23:18:32;;;;;;;5.30;2.80;;;;;;;8.82;70.33;99612.61;232772;1208;22507;-73
2021/09/05 23:23:35;;;;;;;4.90;3.20;;;;;;;8.77;70.50;99614.55;232711;1204;24144;-74
2021/09/05 23:28:38;;;;;;;5.00;3.10;;;;;;;8.71;70.73;99611.53;232590;1205;25561;-73
2021/09/05 23:33:40;;;;;;;3.80;3.20;;;;;;;8.65;70.77;99610.82;232815;1205;24731;-75
2021/09/05 23:38:43;;;;;;;5.50;2.80;;;;;;;8.60;70.87;99609.23;232783;1205;24063;-76
2021/09/05 23:43:46;;;;;;;5.30;3.20;;;;;;;8.56;70.90;99608.23;232807;1205;25216;-74
2021/09/05 23:48:49;;;;;;;6.50;3.30;;;;;;;8.52;71.14;99605.16;232609;1205;24182;-76
2021/09/05 23:53:51;;;;;;;4.80;2.80;;;;;;;8.47;71.13;99593.74;232732;1205;22605;-75
2021/09/05 23:59:02;;;;;;;7.30;3.50;;;;;;;8.45;71.43;99592.77;232771;1204;25225;-77
